createdAt,value
2018-10-05T00:01:11.270Z,1020.02
2018-10-05T00:02:10.955Z,1019.99
2018-10-05T00:03:10.964Z,1019.99
2018-10-05T00:04:10.843Z,1020.02
2018-10-05T00:05:10.716Z,1020
2018-10-05T00:06:11.013Z,1019.99
2018-10-05T00:07:11.182Z,1019.97
2018-10-05T00:08:11.233Z,1019.93
2018-10-05T00:09:11.102Z,1019.95
2018-10-05T00:10:11.117Z,1019.94
2018-10-05T00:11:11.148Z,1019.95
2018-10-05T00:12:11.010Z,1019.96
2018-10-05T00:13:11.186Z,1019.94
2018-10-05T00:14:11.209Z,1019.93
2018-10-05T00:15:11.202Z,1019.93
2018-10-05T00:16:11.228Z,1019.96
2018-10-05T00:17:11.268Z,1019.99
2018-10-05T00:18:11.121Z,1020.02
2018-10-05T00:19:11.311Z,1019.96
2018-10-05T00:20:11.465Z,1019.95
2018-10-05T00:21:11.183Z,1019.91
2018-10-05T00:22:11.356Z,1019.92
2018-10-05T00:23:11.375Z,1019.92
2018-10-05T00:24:11.408Z,1019.87
2018-10-05T00:25:11.431Z,1019.92
2018-10-05T00:26:11.433Z,1019.94
2018-10-05T00:27:11.450Z,1019.92
2018-10-05T00:28:11.462Z,1019.9
2018-10-05T00:29:11.479Z,1019.86
2018-10-05T00:30:11.509Z,1019.9
2018-10-05T00:33:11.582Z,1019.89
2018-10-05T00:34:11.754Z,1019.86
2018-10-05T00:35:11.614Z,1019.8
2018-10-05T00:36:11.477Z,1019.78
2018-10-05T00:37:11.669Z,1019.77
2018-10-05T00:38:11.667Z,1019.78
2018-10-05T00:39:11.829Z,1019.81
2018-10-05T00:40:11.708Z,1019.81
2018-10-05T00:41:11.892Z,1019.82
2018-10-05T00:42:11.607Z,1019.84
2018-10-05T00:43:11.600Z,1019.85
2018-10-05T00:44:11.495Z,1019.84
2018-10-05T00:45:12.013Z,1019.86
2018-10-05T00:46:11.988Z,1019.81
2018-10-05T00:47:11.861Z,1019.8
2018-10-05T00:49:12.056Z,1019.76
2018-10-05T00:50:12.125Z,1019.78
2018-10-05T00:51:11.789Z,1019.78
2018-10-05T00:52:11.819Z,1019.78
2018-10-05T00:53:12.255Z,1019.74
2018-10-05T00:54:12.158Z,1019.72
2018-10-05T00:55:12.027Z,1019.75
2018-10-05T00:56:12.101Z,1019.71
2018-10-05T00:57:12.253Z,1019.69
2018-10-05T00:58:11.943Z,1019.74
2018-10-05T00:59:12.123Z,1019.71
2018-10-05T01:00:12.107Z,1019.71
2018-10-05T01:01:12.121Z,1019.72
2018-10-05T01:02:12.335Z,1019.69
2018-10-05T01:03:12.174Z,1019.71
2018-10-05T01:05:12.228Z,1019.68
2018-10-05T01:06:12.257Z,1019.65
2018-10-05T01:07:12.259Z,1019.66
2018-10-05T01:08:12.293Z,1019.66
2018-10-05T01:09:12.512Z,1019.64
2018-10-05T01:10:12.348Z,1019.65
2018-10-05T01:11:12.695Z,1019.63
2018-10-05T01:12:12.377Z,1019.65
2018-10-05T01:13:12.234Z,1019.63
2018-10-05T01:14:12.256Z,1019.61
2018-10-05T01:15:12.429Z,1019.6
2018-10-05T01:16:12.485Z,1019.59
2018-10-05T01:17:12.605Z,1019.59
2018-10-05T01:18:12.498Z,1019.62
2018-10-05T01:19:12.862Z,1019.6
2018-10-05T01:21:12.548Z,1019.63
2018-10-05T01:22:12.558Z,1019.63
2018-10-05T01:23:12.280Z,1019.59
2018-10-05T01:24:12.551Z,1019.59
2018-10-05T01:25:12.623Z,1019.6
2018-10-05T01:26:12.790Z,1019.57
2018-10-05T01:27:12.668Z,1019.58
2018-10-05T01:28:12.688Z,1019.6
2018-10-05T01:29:12.864Z,1019.56
2018-10-05T01:30:12.736Z,1019.57
2018-10-05T01:31:12.750Z,1019.6
2018-10-05T01:32:12.898Z,1019.61
2018-10-05T01:33:12.495Z,1019.63
2018-10-05T01:34:12.798Z,1019.59
2018-10-05T01:36:13.007Z,1019.63
2018-10-05T01:37:13.026Z,1019.6
2018-10-05T01:38:12.895Z,1019.58
2018-10-05T01:39:13.053Z,1019.59
2018-10-05T01:40:13.090Z,1019.57
2018-10-05T01:41:12.805Z,1019.54
2018-10-05T01:42:12.969Z,1019.58
2018-10-05T01:43:13.000Z,1019.57
2018-10-05T01:44:13.060Z,1019.57
2018-10-05T01:45:13.032Z,1019.59
2018-10-05T01:46:13.039Z,1019.58
2018-10-05T01:47:13.219Z,1019.56
2018-10-05T01:48:13.228Z,1019.56
2018-10-05T01:49:13.155Z,1019.51
2018-10-05T01:50:13.125Z,1019.57
2018-10-05T01:51:13.142Z,1019.54
2018-10-05T01:52:13.170Z,1019.51
2018-10-05T01:53:13.340Z,1019.5
2018-10-05T01:54:13.108Z,1019.46
2018-10-05T01:55:12.926Z,1019.47
2018-10-05T01:56:13.259Z,1019.46
2018-10-05T01:57:13.407Z,1019.41
2018-10-05T01:58:13.140Z,1019.4
2018-10-05T01:59:13.157Z,1019.37
2018-10-05T02:00:13.187Z,1019.39
2018-10-05T02:01:13.197Z,1019.39
2018-10-05T02:02:13.211Z,1019.41
2018-10-05T02:03:13.543Z,1019.38
2018-10-05T02:04:13.418Z,1019.37
2018-10-05T02:05:13.128Z,1019.37
2018-10-05T02:06:13.580Z,1019.36
2018-10-05T02:08:13.484Z,1019.36
2018-10-05T02:09:13.639Z,1019.38
2018-10-05T02:10:13.384Z,1019.37
2018-10-05T02:11:13.541Z,1019.41
2018-10-05T02:12:13.564Z,1019.36
2018-10-05T02:13:13.582Z,1019.35
2018-10-05T02:14:13.757Z,1019.35
2018-10-05T02:15:13.627Z,1019.33
2018-10-05T02:16:13.658Z,1019.34
2018-10-05T02:18:13.690Z,1019.31
2018-10-05T02:19:13.863Z,1019.29
2018-10-05T02:20:13.745Z,1019.33
2018-10-05T02:21:13.911Z,1019.32
2018-10-05T02:22:13.625Z,1019.29
2018-10-05T02:24:13.958Z,1019.26
2018-10-05T02:25:13.685Z,1019.23
2018-10-05T02:26:13.713Z,1019.26
2018-10-05T02:27:13.902Z,1019.25
2018-10-05T02:28:13.761Z,1019.27
2018-10-05T02:29:14.066Z,1019.21
2018-10-05T02:30:14.124Z,1019.21
2018-10-05T02:31:14.113Z,1019.21
2018-10-05T02:32:14.130Z,1019.2
2018-10-05T02:33:13.997Z,1019.22
2018-10-05T02:34:14.011Z,1019.21
2018-10-05T02:35:14.032Z,1019.21
2018-10-05T02:36:14.213Z,1019.21
2018-10-05T02:37:14.087Z,1019.24
2018-10-05T02:38:13.793Z,1019.21
2018-10-05T02:40:14.014Z,1019.21
2018-10-05T02:41:14.005Z,1019.24
2018-10-05T02:42:14.033Z,1019.2
2018-10-05T02:43:14.286Z,1019.19
2018-10-05T02:44:14.229Z,1019.2
2018-10-05T02:45:14.375Z,1019.18
2018-10-05T02:46:14.250Z,1019.18
2018-10-05T02:47:14.129Z,1019.15
2018-10-05T02:48:14.308Z,1019.16
2018-10-05T02:49:14.300Z,1019.14
2018-10-05T02:50:14.491Z,1019.16
2018-10-05T02:51:14.207Z,1019.16
2018-10-05T02:52:14.299Z,1019.19
2018-10-05T02:53:14.250Z,1019.21
2018-10-05T02:54:14.262Z,1019.19
2018-10-05T02:56:14.474Z,1019.16
2018-10-05T02:57:14.327Z,1019.12
2018-10-05T02:58:14.638Z,1019.09
2018-10-05T02:59:14.513Z,1019.16
2018-10-05T03:00:14.541Z,1019.15
2018-10-05T03:01:14.675Z,1019.14
2018-10-05T03:02:14.736Z,1019.16
2018-10-05T03:03:14.456Z,1019.19
2018-10-05T03:04:14.774Z,1019.18
2018-10-05T03:05:14.651Z,1019.21
2018-10-05T03:06:14.661Z,1019.21
2018-10-05T03:07:14.827Z,1019.15
2018-10-05T03:08:14.866Z,1019.14
2018-10-05T03:09:14.732Z,1019.12
2018-10-05T03:11:14.766Z,1019.11
2018-10-05T03:12:14.489Z,1019.15
2018-10-05T03:13:14.979Z,1019.19
2018-10-05T03:14:14.836Z,1019.13
2018-10-05T03:15:14.694Z,1019.14
2018-10-05T03:16:14.824Z,1019.17
2018-10-05T03:17:14.863Z,1019.15
2018-10-05T03:18:15.092Z,1019.09
2018-10-05T03:19:14.893Z,1019.07
2018-10-05T03:20:14.786Z,1019.1
2018-10-05T03:21:15.126Z,1019.08
2018-10-05T03:22:14.820Z,1019.07
2018-10-05T03:23:15.148Z,1019.08
2018-10-05T03:24:14.986Z,1019.09
2018-10-05T03:25:15.029Z,1019.06
2018-10-05T03:26:15.042Z,1019.01
2018-10-05T03:27:15.040Z,1018.99
2018-10-05T03:28:14.887Z,1018.95
2018-10-05T03:29:15.263Z,1019.01
2018-10-05T03:30:15.012Z,1018.99
2018-10-05T03:31:15.326Z,1018.98
2018-10-05T03:32:15.043Z,1018.95
2018-10-05T03:33:15.007Z,1018.95
2018-10-05T03:34:15.234Z,1018.93
2018-10-05T03:35:15.095Z,1018.91
2018-10-05T03:36:14.968Z,1018.88
2018-10-05T03:37:15.281Z,1018.91
2018-10-05T03:38:15.292Z,1018.83
2018-10-05T03:39:15.025Z,1018.79
2018-10-05T03:40:15.337Z,1018.79
2018-10-05T03:41:15.898Z,1018.73
2018-10-05T03:43:15.532Z,1018.67
2018-10-05T03:44:15.278Z,1018.65
2018-10-05T03:45:15.284Z,1018.64
2018-10-05T03:46:15.604Z,1018.65
2018-10-05T03:47:15.641Z,1018.7
2018-10-05T03:48:15.643Z,1018.73
2018-10-05T03:49:15.377Z,1018.75
2018-10-05T03:50:15.698Z,1018.71
2018-10-05T03:51:15.565Z,1018.75
2018-10-05T03:52:15.632Z,1018.77
2018-10-05T03:53:15.768Z,1018.76
2018-10-05T03:54:15.783Z,1018.75
2018-10-05T03:55:15.646Z,1018.75
2018-10-05T03:56:15.680Z,1018.72
2018-10-05T03:57:15.644Z,1018.78
2018-10-05T03:59:15.679Z,1018.77
2018-10-05T04:00:15.872Z,1018.74
2018-10-05T04:01:15.917Z,1018.78
2018-10-05T04:02:15.674Z,1018.76
2018-10-05T04:03:15.815Z,1018.81
2018-10-05T04:04:15.950Z,1018.76
2018-10-05T04:05:15.980Z,1018.83
2018-10-05T04:06:15.866Z,1018.8
2018-10-05T04:07:16.023Z,1018.77
2018-10-05T04:08:15.758Z,1018.78
2018-10-05T04:09:15.909Z,1018.79
2018-10-05T04:10:16.051Z,1018.76
2018-10-05T04:11:15.817Z,1018.74
2018-10-05T04:12:15.887Z,1018.73
2018-10-05T04:13:16.120Z,1018.7
2018-10-05T04:15:15.894Z,1018.69
2018-10-05T04:16:15.903Z,1018.66
2018-10-05T04:17:15.939Z,1018.67
2018-10-05T04:18:15.893Z,1018.66
2018-10-05T04:19:16.065Z,1018.68
2018-10-05T04:20:15.952Z,1018.66
2018-10-05T04:21:15.945Z,1018.64
2018-10-05T04:22:16.073Z,1018.66
2018-10-05T04:23:16.058Z,1018.69
2018-10-05T04:24:16.243Z,1018.72
2018-10-05T04:25:16.151Z,1018.69
2018-10-05T04:26:15.970Z,1018.71
2018-10-05T04:27:16.307Z,1018.7
2018-10-05T04:28:16.288Z,1018.68
2018-10-05T04:29:16.452Z,1018.71
2018-10-05T04:31:16.460Z,1018.76
2018-10-05T04:32:16.189Z,1018.73
2018-10-05T04:33:16.218Z,1018.72
2018-10-05T04:34:16.236Z,1018.77
2018-10-05T04:35:16.421Z,1018.8
2018-10-05T04:36:16.368Z,1018.83
2018-10-05T04:37:16.343Z,1018.81
2018-10-05T04:38:16.375Z,1018.89
2018-10-05T04:39:16.376Z,1018.94
2018-10-05T04:40:16.512Z,1018.89
2018-10-05T04:41:16.403Z,1018.91
2018-10-05T04:42:16.598Z,1018.89
2018-10-05T04:43:16.523Z,1018.92
2018-10-05T04:44:16.555Z,1018.9
2018-10-05T04:46:16.692Z,1018.86
2018-10-05T04:47:16.713Z,1018.9
2018-10-05T04:48:16.731Z,1018.91
2018-10-05T04:49:16.752Z,1018.9
2018-10-05T04:50:16.913Z,1018.93
2018-10-05T04:51:16.944Z,1018.91
2018-10-05T04:52:16.952Z,1018.88
2018-10-05T04:53:16.833Z,1018.91
2018-10-05T04:54:17.021Z,1018.87
2018-10-05T04:55:17.070Z,1018.9
2018-10-05T04:56:16.889Z,1018.9
2018-10-05T04:57:16.765Z,1018.92
2018-10-05T04:58:16.920Z,1018.92
2018-10-05T04:59:17.122Z,1018.93
2018-10-05T05:00:17.125Z,1018.98
2018-10-05T05:01:17.016Z,1018.94
2018-10-05T05:02:16.869Z,1019
2018-10-05T05:03:17.026Z,1018.96
2018-10-05T05:04:17.205Z,1018.94
2018-10-05T05:05:17.079Z,1018.97
2018-10-05T05:06:17.248Z,1019.01
2018-10-05T05:07:17.103Z,1018.99
2018-10-05T05:08:16.975Z,1018.99
2018-10-05T05:09:16.997Z,1019.03
2018-10-05T05:10:17.015Z,1019.05
2018-10-05T05:11:17.179Z,1019.05
2018-10-05T05:12:17.300Z,1018.99
2018-10-05T05:13:17.384Z,1019.05
2018-10-05T05:14:17.248Z,1019.03
2018-10-05T05:15:17.263Z,1019.04
2018-10-05T05:16:17.449Z,1019.06
2018-10-05T05:18:17.314Z,1019.02
2018-10-05T05:19:17.505Z,1019.03
2018-10-05T05:20:17.530Z,1019.04
2018-10-05T05:21:17.229Z,1019.04
2018-10-05T05:22:17.275Z,1019.04
2018-10-05T05:23:17.592Z,1019.05
2018-10-05T05:24:17.464Z,1019.01
2018-10-05T05:25:17.487Z,1018.98
2018-10-05T05:26:17.505Z,1019.01
2018-10-05T05:27:17.361Z,1019.01
2018-10-05T05:28:17.379Z,1019.04
2018-10-05T05:29:17.400Z,1019.05
2018-10-05T05:30:17.730Z,1019.01
2018-10-05T05:31:17.455Z,1019.01
2018-10-05T05:32:17.768Z,1019.03
2018-10-05T05:34:17.660Z,1019.05
2018-10-05T05:35:17.539Z,1019.08
2018-10-05T05:36:17.693Z,1019.07
2018-10-05T05:37:17.716Z,1019.08
2018-10-05T05:38:17.433Z,1019.07
2018-10-05T05:39:17.604Z,1019.1
2018-10-05T05:40:17.854Z,1019.09
2018-10-05T05:41:18.022Z,1019.11
2018-10-05T05:42:18.019Z,1019.12
2018-10-05T05:43:17.989Z,1019.11
2018-10-05T05:44:18.009Z,1019.12
2018-10-05T05:45:17.860Z,1019.11
2018-10-05T05:46:17.899Z,1019.13
2018-10-05T05:47:17.916Z,1019.12
2018-10-05T05:48:17.927Z,1019.15
2018-10-05T05:50:18.039Z,1019.18
2018-10-05T05:51:17.997Z,1019.18
2018-10-05T05:52:18.048Z,1019.21
2018-10-05T05:53:18.031Z,1019.2
2018-10-05T05:54:18.066Z,1019.16
2018-10-05T05:55:18.232Z,1019.17
2018-10-05T05:56:18.111Z,1019.23
2018-10-05T05:57:18.268Z,1019.2
2018-10-05T05:58:18.290Z,1019.2
2018-10-05T05:59:18.291Z,1019.21
2018-10-05T06:00:18.172Z,1019.21
2018-10-05T06:01:18.217Z,1019.23
2018-10-05T06:02:18.293Z,1019.26
2018-10-05T06:03:18.245Z,1019.3
2018-10-05T06:04:18.271Z,1019.33
2018-10-05T06:06:18.301Z,1019.3
2018-10-05T06:07:18.189Z,1019.29
2018-10-05T06:08:18.455Z,1019.3
2018-10-05T06:09:18.066Z,1019.33
2018-10-05T06:10:18.399Z,1019.3
2018-10-05T06:11:18.593Z,1019.31
2018-10-05T06:12:18.604Z,1019.33
2018-10-05T06:13:18.461Z,1019.29
2018-10-05T06:14:18.627Z,1019.33
2018-10-05T06:15:18.666Z,1019.33
2018-10-05T06:16:18.579Z,1019.36
2018-10-05T06:17:18.231Z,1019.37
2018-10-05T06:18:18.731Z,1019.36
2018-10-05T06:19:18.584Z,1019.34
2018-10-05T06:21:18.552Z,1019.35
2018-10-05T06:22:18.972Z,1019.36
2018-10-05T06:23:18.671Z,1019.33
2018-10-05T06:24:18.845Z,1019.37
2018-10-05T06:25:18.545Z,1019.4
2018-10-05T06:26:18.733Z,1019.4
2018-10-05T06:27:18.643Z,1019.37
2018-10-05T06:28:18.757Z,1019.38
2018-10-05T06:29:18.940Z,1019.43
2018-10-05T06:30:18.813Z,1019.44
2018-10-05T06:31:18.765Z,1019.47
2018-10-05T06:32:18.859Z,1019.57
2018-10-05T06:33:18.888Z,1019.56
2018-10-05T06:34:18.739Z,1019.58
2018-10-05T06:35:18.812Z,1019.66
2018-10-05T06:36:18.796Z,1019.68
2018-10-05T06:37:18.970Z,1019.75
2018-10-05T06:38:18.990Z,1019.76
2018-10-05T06:39:19.018Z,1019.73
2018-10-05T06:41:19.207Z,1019.77
2018-10-05T06:42:19.181Z,1019.78
2018-10-05T06:43:19.159Z,1019.79
2018-10-05T06:44:19.502Z,1019.8
2018-10-05T06:45:19.155Z,1019.81
2018-10-05T06:46:19.378Z,1019.84
2018-10-05T06:47:19.429Z,1019.81
2018-10-05T06:48:19.334Z,1019.85
2018-10-05T06:49:18.946Z,1019.91
2018-10-05T06:50:19.298Z,1019.89
2018-10-05T06:51:19.306Z,1019.93
2018-10-05T06:53:19.602Z,1019.93
2018-10-05T06:54:19.534Z,1019.99
2018-10-05T06:55:19.246Z,1019.97
2018-10-05T06:56:19.440Z,1019.96
2018-10-05T06:57:19.630Z,1020.03
2018-10-05T06:58:19.728Z,1020.02
2018-10-05T06:59:19.376Z,1020.03
2018-10-05T07:00:19.564Z,1020.05
2018-10-05T07:01:19.771Z,1020.04
2018-10-05T07:02:19.438Z,1020.01
2018-10-05T07:03:19.791Z,1020.05
2018-10-05T07:04:19.642Z,1020.05
2018-10-05T07:05:19.699Z,1020.04
2018-10-05T07:06:19.562Z,1020.05
2018-10-05T07:07:19.738Z,1020.08
2018-10-05T07:09:19.684Z,1020.08
2018-10-05T07:10:19.514Z,1020.11
2018-10-05T07:11:19.856Z,1020.1
2018-10-05T07:12:19.931Z,1020.06
2018-10-05T07:13:19.902Z,1020.08
2018-10-05T07:14:19.783Z,1020.02
2018-10-05T07:15:20.095Z,1020.04
2018-10-05T07:16:20.187Z,1020.06
2018-10-05T07:17:20.179Z,1020.04
2018-10-05T07:18:19.883Z,1020.04
2018-10-05T07:19:20.447Z,1020.02
2018-10-05T07:20:20.249Z,1020.08
2018-10-05T07:21:20.162Z,1020
2018-10-05T07:22:20.191Z,1019.96
2018-10-05T07:23:20.033Z,1019.9
2018-10-05T07:25:20.237Z,1019.85
2018-10-05T07:26:20.103Z,1019.78
2018-10-05T07:27:20.124Z,1019.76
2018-10-05T07:28:20.428Z,1019.73
2018-10-05T07:29:20.548Z,1019.73
2018-10-05T07:30:20.362Z,1019.7
2018-10-05T07:31:20.397Z,1019.71
2018-10-05T07:32:20.588Z,1019.72
2018-10-05T07:34:20.327Z,1019.65
2018-10-05T07:35:20.569Z,1019.67
2018-10-05T07:37:20.659Z,1019.68
2018-10-05T07:38:20.458Z,1019.7
2018-10-05T07:41:20.851Z,1019.64
2018-10-05T07:42:21.191Z,1019.65
2018-10-05T07:43:20.743Z,1019.61
2018-10-05T07:44:20.765Z,1019.63
2018-10-05T07:45:20.631Z,1019.65
2018-10-05T07:46:20.654Z,1019.59
2018-10-05T07:47:20.695Z,1019.62
2018-10-05T07:48:20.902Z,1019.6
2018-10-05T07:49:21.276Z,1019.61
2018-10-05T07:50:20.927Z,1019.61
2018-10-05T07:51:21.147Z,1019.6
2018-10-05T07:52:20.827Z,1019.59
2018-10-05T07:53:21.185Z,1019.59
2018-10-05T07:54:21.185Z,1019.58
2018-10-05T07:56:21.090Z,1019.59
2018-10-05T07:57:21.170Z,1019.58
2018-10-05T07:58:21.358Z,1019.56
2018-10-05T08:00:21.047Z,1019.56
2018-10-05T08:01:21.186Z,1019.54
2018-10-05T08:02:21.391Z,1019.52
2018-10-05T08:03:21.425Z,1019.51
2018-10-05T08:04:21.154Z,1019.5
2018-10-05T08:05:21.391Z,1019.52
2018-10-05T08:06:21.372Z,1019.55
2018-10-05T08:07:21.564Z,1019.58
2018-10-05T08:08:21.586Z,1019.58
2018-10-05T08:09:21.501Z,1019.55
2018-10-05T08:10:21.483Z,1019.51
2018-10-05T08:11:21.649Z,1019.52
2018-10-05T08:12:21.520Z,1019.5
2018-10-05T08:13:21.726Z,1019.48
2018-10-05T08:14:21.574Z,1019.5
2018-10-05T08:15:21.597Z,1019.52
2018-10-05T08:16:21.634Z,1019.51
2018-10-05T08:17:21.847Z,1019.51
2018-10-05T08:18:21.680Z,1019.48
2018-10-05T08:19:21.734Z,1019.43
2018-10-05T08:20:22.084Z,1019.46
2018-10-05T08:22:21.790Z,1019.43
2018-10-05T08:23:21.885Z,1019.44
2018-10-05T08:24:21.993Z,1019.4
2018-10-05T08:25:21.887Z,1019.39
2018-10-05T08:26:21.751Z,1019.43
2018-10-05T08:28:22.118Z,1019.4
2018-10-05T08:29:22.115Z,1019.4
2018-10-05T08:30:22.024Z,1019.4
2018-10-05T08:31:22.051Z,1019.38
2018-10-05T08:32:22.092Z,1019.42
2018-10-05T08:33:22.272Z,1019.41
2018-10-05T08:34:22.295Z,1019.36
2018-10-05T08:35:22.191Z,1019.39
2018-10-05T08:36:22.237Z,1019.37
2018-10-05T08:37:22.732Z,1019.37
2018-10-05T08:38:22.407Z,1019.38
2018-10-05T08:39:22.312Z,1019.41
2018-10-05T08:40:22.244Z,1019.34
2018-10-05T08:42:22.737Z,1019.33
2018-10-05T08:44:22.397Z,1019.31
2018-10-05T08:45:22.486Z,1019.29
2018-10-05T08:46:22.454Z,1019.23
2018-10-05T08:47:22.170Z,1019.25
2018-10-05T08:48:22.648Z,1019.26
2018-10-05T08:49:22.722Z,1019.28
2018-10-05T08:50:22.559Z,1019.22
2018-10-05T08:51:22.410Z,1019.26
2018-10-05T08:52:22.495Z,1019.21
2018-10-05T08:53:22.805Z,1019.25
2018-10-05T08:54:22.684Z,1019.25
2018-10-05T08:55:22.842Z,1019.22
2018-10-05T08:56:22.935Z,1019.14
2018-10-05T08:57:22.742Z,1019.15
2018-10-05T08:58:22.615Z,1019.15
2018-10-05T09:00:23.032Z,1019.11
2018-10-05T09:01:22.855Z,1019.08
2018-10-05T09:02:23.002Z,1019.12
2018-10-05T09:03:22.889Z,1019.1
2018-10-05T09:04:22.611Z,1019.14
2018-10-05T09:05:22.655Z,1019.11
2018-10-05T09:06:22.689Z,1019.09
2018-10-05T09:07:22.696Z,1019.11
2018-10-05T09:08:22.801Z,1019.11
2018-10-05T09:09:22.767Z,1019.09
2018-10-05T09:10:22.807Z,1019.06
2018-10-05T09:11:23.336Z,1019.07
2018-10-05T09:12:23.420Z,1019.05
2018-10-05T09:13:23.237Z,1019.05
2018-10-05T09:14:23.351Z,1019.01
2018-10-05T09:16:23.405Z,1019.01
2018-10-05T09:17:22.980Z,1019.02
2018-10-05T09:18:22.992Z,1018.97
2018-10-05T09:19:23.034Z,1018.99
2018-10-05T09:20:23.549Z,1018.95
2018-10-05T09:21:23.765Z,1018.92
2018-10-05T09:22:23.215Z,1018.94
2018-10-05T09:23:23.841Z,1018.94
2018-10-05T09:24:23.278Z,1018.93
2018-10-05T09:26:23.196Z,1018.91
2018-10-05T09:27:23.222Z,1018.88
2018-10-05T09:28:23.250Z,1018.87
2018-10-05T09:29:23.276Z,1018.88
2018-10-05T09:31:23.330Z,1018.83
2018-10-05T09:32:23.357Z,1018.82
2018-10-05T09:33:23.385Z,1018.83
2018-10-05T09:34:23.410Z,1018.82
2018-10-05T09:35:23.438Z,1018.81
2018-10-05T09:36:23.464Z,1018.78
2018-10-05T09:37:23.535Z,1018.77
2018-10-05T09:38:23.519Z,1018.79
2018-10-05T09:39:23.546Z,1018.76
2018-10-05T09:40:23.572Z,1018.74
2018-10-05T09:41:23.599Z,1018.73
2018-10-05T09:42:23.627Z,1018.75
2018-10-05T09:43:23.657Z,1018.75
2018-10-05T09:44:23.680Z,1018.73
2018-10-05T09:45:23.757Z,1018.72
2018-10-05T09:46:23.734Z,1018.74
2018-10-05T09:47:23.760Z,1018.68
2018-10-05T09:48:23.786Z,1018.7
2018-10-05T09:49:23.814Z,1018.71
2018-10-05T09:50:23.840Z,1018.7
2018-10-05T09:51:23.868Z,1018.65
2018-10-05T09:52:23.939Z,1018.68
2018-10-05T09:53:23.921Z,1018.69
2018-10-05T09:54:23.948Z,1018.63
2018-10-05T09:55:23.974Z,1018.66
2018-10-05T09:56:24.001Z,1018.65
2018-10-05T09:57:24.029Z,1018.61
2018-10-05T09:58:24.054Z,1018.63
2018-10-05T09:59:24.082Z,1018.59
2018-10-05T10:00:24.109Z,1018.58
2018-10-05T10:01:24.135Z,1018.57
2018-10-05T10:03:24.201Z,1018.63
2018-10-05T10:04:24.217Z,1018.6
2018-10-05T10:05:24.244Z,1018.58
2018-10-05T10:06:24.268Z,1018.59
2018-10-05T10:07:24.295Z,1018.52
2018-10-05T10:08:24.350Z,1018.49
2018-10-05T10:09:24.347Z,1018.49
2018-10-05T10:10:24.376Z,1018.48
2018-10-05T10:11:24.400Z,1018.45
2018-10-05T10:12:24.426Z,1018.46
2018-10-05T10:13:24.452Z,1018.43
2018-10-05T10:14:24.480Z,1018.38
2018-10-05T10:15:24.505Z,1018.36
2018-10-05T10:16:24.531Z,1018.3
2018-10-05T10:17:24.557Z,1018.3
2018-10-05T10:19:24.609Z,1018.32
2018-10-05T10:20:24.635Z,1018.28
2018-10-05T10:21:24.660Z,1018.25
2018-10-05T10:22:24.687Z,1018.25
2018-10-05T10:23:24.712Z,1018.21
2018-10-05T10:24:24.738Z,1018.21
2018-10-05T10:25:24.765Z,1018.19
2018-10-05T10:26:24.790Z,1018.2
2018-10-05T10:27:24.815Z,1018.12
2018-10-05T10:28:24.936Z,1018.11
2018-10-05T10:29:24.908Z,1018.13
2018-10-05T10:30:24.892Z,1018.09
2018-10-05T10:31:24.916Z,1018.09
2018-10-05T10:32:24.943Z,1018.07
2018-10-05T10:33:24.967Z,1018.05
2018-10-05T10:35:25.018Z,1018.02
2018-10-05T10:36:25.044Z,1018.05
2018-10-05T10:37:25.069Z,1018.01
2018-10-05T10:38:25.093Z,1018
2018-10-05T10:39:25.119Z,1017.99
2018-10-05T10:40:25.145Z,1018.01
2018-10-05T10:41:25.169Z,1017.96
2018-10-05T10:42:25.227Z,1017.94
2018-10-05T10:43:25.222Z,1017.97
2018-10-05T10:44:25.293Z,1018
2018-10-05T10:45:25.269Z,1017.92
2018-10-05T10:46:25.293Z,1017.95
2018-10-05T10:47:25.319Z,1017.89
2018-10-05T10:48:25.344Z,1017.88
2018-10-05T10:49:25.368Z,1017.84
2018-10-05T10:51:25.419Z,1017.82
2018-10-05T10:52:25.443Z,1017.8
2018-10-05T10:53:25.485Z,1017.81
2018-10-05T10:54:25.493Z,1017.79
2018-10-05T10:55:25.519Z,1017.82
2018-10-05T10:56:25.620Z,1017.8
2018-10-05T10:57:25.566Z,1017.79
2018-10-05T10:58:25.592Z,1017.81
2018-10-05T10:59:25.616Z,1017.78
2018-10-05T11:00:25.646Z,1017.77
2018-10-05T11:01:25.686Z,1017.73
2018-10-05T11:02:25.690Z,1017.72
2018-10-05T11:03:25.715Z,1017.72
2018-10-05T11:04:25.819Z,1017.7
2018-10-05T11:06:25.789Z,1017.68
2018-10-05T11:07:25.813Z,1017.7
2018-10-05T11:08:25.839Z,1017.7
2018-10-05T11:09:25.866Z,1017.64
2018-10-05T11:10:25.888Z,1017.66
2018-10-05T11:11:25.912Z,1017.63
2018-10-05T11:12:25.937Z,1017.64
2018-10-05T11:13:25.961Z,1017.58
2018-10-05T11:14:25.986Z,1017.63
2018-10-05T11:15:26.010Z,1017.57
2018-10-05T11:16:26.038Z,1017.55
2018-10-05T11:17:26.060Z,1017.55
2018-10-05T11:18:26.084Z,1017.57
2018-10-05T11:19:26.114Z,1017.61
2018-10-05T11:20:26.133Z,1017.52
2018-10-05T11:21:26.175Z,1017.52
2018-10-05T11:22:26.181Z,1017.47
2018-10-05T11:23:26.208Z,1017.51
2018-10-05T11:24:26.231Z,1017.5
2018-10-05T11:25:26.255Z,1017.49
2018-10-05T11:26:26.279Z,1017.45
2018-10-05T11:27:26.308Z,1017.43
2018-10-05T11:28:26.329Z,1017.42
2018-10-05T11:29:26.379Z,1017.39
2018-10-05T11:30:26.377Z,1017.36
2018-10-05T11:31:26.402Z,1017.32
2018-10-05T11:32:26.427Z,1017.33
2018-10-05T11:33:26.451Z,1017.32
2018-10-05T11:34:26.474Z,1017.28
2018-10-05T11:35:26.500Z,1017.33
2018-10-05T11:36:26.524Z,1017.31
2018-10-05T11:38:26.572Z,1017.32
2018-10-05T11:39:26.599Z,1017.28
2018-10-05T11:40:26.621Z,1017.28
2018-10-05T11:41:26.650Z,1017.26
2018-10-05T11:42:26.672Z,1017.22
2018-10-05T11:43:26.695Z,1017.14
2018-10-05T11:44:26.718Z,1017.05
2018-10-05T11:45:26.742Z,1017.13
2018-10-05T11:46:26.819Z,1017.06
2018-10-05T11:47:26.791Z,1017.05
2018-10-05T11:48:26.816Z,1017.01
2018-10-05T11:49:26.841Z,1017
2018-10-05T11:50:26.866Z,1016.99
2018-10-05T11:51:26.889Z,1016.97
2018-10-05T11:52:26.959Z,1016.96
2018-10-05T11:54:26.963Z,1016.98
2018-10-05T11:55:26.986Z,1016.92
2018-10-05T11:56:27.111Z,1016.87
2018-10-05T11:57:27.035Z,1016.82
2018-10-05T11:58:27.059Z,1016.83
2018-10-05T11:59:27.084Z,1016.85
2018-10-05T12:00:27.108Z,1016.81
2018-10-05T12:01:27.133Z,1016.84
2018-10-05T12:02:27.184Z,1016.81
2018-10-05T12:03:27.182Z,1016.75
2018-10-05T12:04:27.210Z,1016.72
2018-10-05T12:05:27.230Z,1016.69
2018-10-05T12:06:27.253Z,1016.72
2018-10-05T12:07:27.281Z,1016.73
2018-10-05T12:08:27.303Z,1016.7
2018-10-05T12:10:27.350Z,1016.67
2018-10-05T12:11:27.375Z,1016.65
2018-10-05T12:12:27.400Z,1016.65
2018-10-05T12:13:27.423Z,1016.63
2018-10-05T12:14:27.447Z,1016.62
2018-10-05T12:15:27.472Z,1016.59
2018-10-05T12:16:27.497Z,1016.58
2018-10-05T12:17:27.520Z,1016.62
2018-10-05T12:18:27.544Z,1016.57
2018-10-05T12:19:27.572Z,1016.53
2018-10-05T12:20:27.593Z,1016.54
2018-10-05T12:21:27.617Z,1016.53
2018-10-05T12:22:27.642Z,1016.51
2018-10-05T12:23:27.666Z,1016.53
2018-10-05T12:24:27.690Z,1016.52
2018-10-05T12:26:27.792Z,1016.47
2018-10-05T12:27:27.762Z,1016.47
2018-10-05T12:28:27.786Z,1016.49
2018-10-05T12:29:27.811Z,1016.51
2018-10-05T12:30:27.836Z,1016.49
2018-10-05T12:31:27.858Z,1016.46
2018-10-05T12:32:27.883Z,1016.46
2018-10-05T12:33:27.907Z,1016.48
2018-10-05T12:34:27.934Z,1016.44
2018-10-05T12:35:27.956Z,1016.41
2018-10-05T12:36:27.980Z,1016.48
2018-10-05T12:37:28.004Z,1016.4
2018-10-05T12:38:28.029Z,1016.41
2018-10-05T12:39:28.053Z,1016.45
2018-10-05T12:41:28.104Z,1016.44
2018-10-05T12:42:28.126Z,1016.42
2018-10-05T12:43:28.150Z,1016.39
2018-10-05T12:44:28.175Z,1016.42
2018-10-05T12:45:28.200Z,1016.41
2018-10-05T12:46:28.223Z,1016.35
2018-10-05T12:47:28.247Z,1016.31
2018-10-05T12:48:28.271Z,1016.35
2018-10-05T12:49:28.296Z,1016.32
2018-10-05T12:50:28.325Z,1016.3
2018-10-05T12:51:28.344Z,1016.28
2018-10-05T12:52:28.468Z,1016.31
2018-10-05T12:53:28.392Z,1016.28
2018-10-05T12:54:28.416Z,1016.25
2018-10-05T12:55:28.441Z,1016.21
2018-10-05T12:56:28.466Z,1016.2
2018-10-05T12:57:28.489Z,1016.2
2018-10-05T12:58:28.514Z,1016.14
2018-10-05T12:59:28.537Z,1016.17